Time;durP1;ratioP1;P1;durP2;ratioP2;P2;SDS_P1;SDS_P2;PMS_P1;PMS_P2;Temp;Humidity;BMP_temperature;BMP_pressure;BME280_temperature;BME280_humidity;BME280_pressure;Samples;Min_cycle;Max_cycle;Signal;HPM_P1;HPM_P2
2021/11/18 00:02:05;;;;;;;5.50;4.90;;;;;;;4.10;98.76;96573.75;5058489;28;20206;-80
2021/11/18 00:04:30;;;;;;;7.00;5.40;;;;;;;4.02;99.17;96565.63;5075574;28;20195;-78
2021/11/18 00:06:56;;;;;;;7.10;5.47;;;;;;;4.07;99.34;96562.84;5075213;28;20204;-78
2021/11/18 00:09:22;;;;;;;5.93;4.83;;;;;;;4.05;99.30;96565.47;5060965;28;20672;-78
2021/11/18 00:11:50;;;;;;;7.63;5.90;;;;;;;4.02;99.09;96572.50;5062608;28;20239;-79
2021/11/18 00:14:17;;;;;;;5.87;4.83;;;;;;;4.10;99.52;96571.19;5078070;28;20180;-79
2021/11/18 00:16:42;;;;;;;6.67;5.37;;;;;;;4.03;99.44;96557.00;5080520;28;20173;-78
2021/11/18 00:19:08;;;;;;;6.43;5.23;;;;;;;4.09;99.61;96558.44;5078627;28;20481;-79
2021/11/18 00:21:36;;;;;;;7.43;5.87;;;;;;;4.03;99.82;96562.16;5078930;28;20288;-79
2021/11/18 00:24:02;;;;;;;7.50;5.40;;;;;;;4.02;99.66;96555.34;5077162;28;20207;-79
2021/11/18 00:26:30;;;;;;;7.33;5.60;;;;;;;4.03;99.79;96567.28;5061589;28;20194;-78
2021/11/18 00:28:55;;;;;;;6.50;5.40;;;;;;;4.04;99.60;96568.94;5061650;28;20183;-79
2021/11/18 00:31:30;;;;;;;8.93;6.20;;;;;;;4.05;99.49;96567.19;5079761;28;20207;-78
2021/11/18 00:33:56;;;;;;;7.27;5.93;;;;;;;4.06;99.92;96567.13;5061257;28;20180;-79
2021/11/18 00:36:21;;;;;;;7.10;5.70;;;;;;;4.05;100.00;96567.19;5060680;28;20649;-78
2021/11/18 00:38:47;;;;;;;7.60;5.97;;;;;;;4.07;99.76;96573.94;5060481;28;20185;-78
2021/11/18 00:41:13;;;;;;;7.10;5.27;;;;;;;4.08;99.65;96570.44;5076852;28;20557;-79
2021/11/18 00:43:39;;;;;;;6.87;5.13;;;;;;;4.05;99.64;96568.03;5074932;28;20264;-78
2021/11/18 00:46:05;;;;;;;7.63;5.43;;;;;;;4.06;99.89;96574.81;5076883;28;20654;-78
2021/11/18 00:48:30;;;;;;;5.73;4.47;;;;;;;4.11;99.75;96575.41;5076911;28;20224;-78
2021/11/18 00:50:58;;;;;;;8.13;5.77;;;;;;;4.08;99.34;96575.59;5059791;28;20193;-78
2021/11/18 00:53:25;;;;;;;6.20;5.10;;;;;;;4.05;99.66;96569.78;5077960;28;20171;-79
2021/11/18 00:55:50;;;;;;;6.77;4.77;;;;;;;4.05;99.61;96573.16;5076337;28;20706;-79
2021/11/18 00:58:16;;;;;;;5.00;4.43;;;;;;;4.05;99.86;96570.59;5078827;28;20197;-78
2021/11/18 01:00:44;;;;;;;4.67;3.90;;;;;;;4.05;99.78;96569.78;5061350;28;20673;-78
2021/11/18 01:03:10;;;;;;;5.33;4.60;;;;;;;4.04;99.65;96570.69;5060913;28;20256;-78
2021/11/18 01:05:38;;;;;;;5.73;4.90;;;;;;;4.05;99.89;96564.63;5060086;28;20266;-79
2021/11/18 01:08:05;;;;;;;7.07;4.67;;;;;;;4.07;100.00;96555.94;5077742;28;20230;-79
2021/11/18 01:10:36;;;;;;;6.17;4.63;;;;;;;4.08;99.79;96560.16;5076938;28;20236;-78
2021/11/18 01:13:02;;;;;;;7.20;5.40;;;;;;;4.05;99.71;96560.31;5076386;28;20232;-78
2021/11/18 01:15:31;;;;;;;7.03;5.30;;;;;;;4.06;99.67;96561.97;5075146;28;20256;-78
2021/11/18 01:17:57;;;;;;;5.97;4.83;;;;;;;4.08;99.67;96560.16;5075238;28;20264;-78
2021/11/18 01:20:23;;;;;;;4.97;4.43;;;;;;;4.06;100.00;96567.13;5058154;28;20248;-78
2021/11/18 01:22:50;;;;;;;5.60;4.63;;;;;;;4.09;100.00;96568.72;5075226;28;20197;-78
2021/11/18 01:25:15;;;;;;;6.20;4.80;;;;;;;4.07;99.67;96573.13;5075386;28;20227;-78
2021/11/18 01:27:42;;;;;;;5.83;4.60;;;;;;;4.08;99.89;96580.75;5058453;28;20212;-78
2021/11/18 01:30:10;;;;;;;7.00;5.00;;;;;;;4.09;99.89;96587.53;5058554;28;20667;-78
2021/11/18 01:32:36;;;;;;;5.10;4.40;;;;;;;4.08;100.00;96593.59;5075351;28;20275;-78
2021/11/18 01:35:01;;;;;;;5.23;4.53;;;;;;;4.07;99.79;96589.38;5057126;28;20259;-78
2021/11/18 01:37:26;;;;;;;5.53;4.60;;;;;;;4.10;99.93;96593.50;5058249;28;20212;-78
2021/11/18 01:39:51;;;;;;;4.87;4.17;;;;;;;4.06;99.97;96600.53;5076256;28;20180;-78
2021/11/18 01:42:17;;;;;;;4.73;4.17;;;;;;;4.08;99.95;96601.28;5074644;28;20196;-78
2021/11/18 01:44:46;;;;;;;7.60;4.97;;;;;;;4.08;99.62;96610.75;5073127;28;20634;-78
2021/11/18 01:47:12;;;;;;;5.50;4.10;;;;;;;4.05;99.90;96601.44;5080188;28;20196;-78
2021/11/18 01:49:40;;;;;;;4.87;4.13;;;;;;;4.05;100.00;96601.44;5079841;28;20182;-77
2021/11/18 01:52:06;;;;;;;5.33;4.10;;;;;;;4.05;100.00;96598.88;5074877;28;20193;-78
2021/11/18 01:54:34;;;;;;;5.67;4.37;;;;;;;4.06;100.00;96594.56;5073918;28;20176;-78
2021/11/18 01:57:03;;;;;;;5.10;3.93;;;;;;;4.06;100.00;96597.13;5060183;28;20232;-79
2021/11/18 01:59:39;;;;;;;7.77;4.73;;;;;;;4.08;100.00;96595.34;5076483;28;20180;-78
2021/11/18 02:02:04;;;;;;;6.67;4.53;;;;;;;4.07;100.00;96593.69;5060227;28;20193;-78
2021/11/18 02:04:30;;;;;;;6.37;4.60;;;;;;;4.10;100.00;96589.19;5059797;28;20180;-79
2021/11/18 02:07:04;;;;;;;5.30;3.90;;;;;;;4.09;100.00;96597.81;5060287;28;20705;-79
2021/11/18 02:09:35;;;;;;;6.60;4.13;;;;;;;4.07;100.00;96616.81;5060335;28;20199;-79
2021/11/18 02:12:05;;;;;;;5.67;4.67;;;;;;;4.09;100.00;96613.22;5059396;28;20624;-78
2021/11/18 02:14:32;;;;;;;6.70;5.10;;;;;;;4.07;100.00;96607.34;5075797;28;20200;-78
2021/11/18 02:17:01;;;;;;;5.90;4.90;;;;;;;4.08;100.00;96609.00;5059708;28;20233;-79
2021/11/18 02:19:27;;;;;;;6.23;4.50;;;;;;;4.08;100.00;96605.63;5076700;28;20176;-78
2021/11/18 02:21:52;;;;;;;7.70;4.80;;;;;;;4.07;100.00;96594.50;5076434;28;20691;-79
2021/11/18 02:24:33;;;;;;;6.77;5.27;;;;;;;4.08;100.00;96610.75;5057907;28;20200;-79
2021/11/18 02:26:59;;;;;;;7.23;5.43;;;;;;;4.04;100.00;96611.81;5075913;28;20218;-79
2021/11/18 02:29:24;;;;;;;8.13;5.37;;;;;;;4.05;100.00;96610.91;5076376;28;20471;-78
2021/11/18 02:32:02;;;;;;;7.17;6.37;;;;;;;4.05;100.00;96619.44;5074811;28;20537;-79
2021/11/18 02:34:50;;;;;;;6.17;4.70;;;;;;;4.05;100.00;96628.88;5058388;28;20175;-78
2021/11/18 02:37:16;;;;;;;5.57;4.77;;;;;;;4.05;100.00;96627.16;5075718;28;20633;-79
2021/11/18 02:39:41;;;;;;;7.93;6.30;;;;;;;4.06;100.00;96635.69;5075695;28;20180;-78
2021/11/18 02:42:09;;;;;;;8.47;6.50;;;;;;;4.02;100.00;96635.03;5076418;28;20297;-79
2021/11/18 02:44:35;;;;;;;7.27;6.00;;;;;;;4.05;100.00;96631.47;5057435;28;20169;-78
2021/11/18 02:47:01;;;;;;;8.37;6.00;;;;;;;4.03;100.00;96628.97;5075796;28;20209;-79
2021/11/18 02:49:27;;;;;;;7.17;5.20;;;;;;;4.00;100.00;96634.28;5059460;28;20238;-78
2021/11/18 02:51:52;;;;;;;6.70;5.83;;;;;;;4.04;100.00;96625.50;5076036;28;20197;-79
2021/11/18 02:54:18;;;;;;;7.20;4.90;;;;;;;4.04;100.00;96634.94;5075060;28;20184;-79
2021/11/18 02:56:44;;;;;;;8.73;5.83;;;;;;;4.02;100.00;96629.88;5075166;28;20215;-79
2021/11/18 02:59:09;;;;;;;7.80;6.00;;;;;;;4.01;100.00;96633.38;5059387;28;20181;-79
2021/11/18 03:01:39;;;;;;;7.83;4.93;;;;;;;4.03;100.00;96636.69;5075451;28;20288;-79
2021/11/18 03:04:04;;;;;;;7.03;5.67;;;;;;;4.02;100.00;96631.63;5074680;28;20653;-79
2021/11/18 03:06:30;;;;;;;8.40;6.37;;;;;;;4.01;100.00;96641.09;5075784;28;20229;-79
2021/11/18 03:08:55;;;;;;;8.53;6.07;;;;;;;4.00;100.00;96624.00;5059109;28;20208;-79
2021/11/18 03:11:22;;;;;;;7.30;5.73;;;;;;;4.03;100.00;96628.97;5059410;28;20208;-79
2021/11/18 03:13:48;;;;;;;9.93;6.53;;;;;;;4.03;100.00;96634.13;5057948;28;20183;-79
2021/11/18 03:16:15;;;;;;;7.30;5.80;;;;;;;4.05;100.00;96634.84;5059435;28;20196;-80
2021/11/18 03:18:40;;;;;;;9.70;6.70;;;;;;;4.04;100.00;96638.34;5077079;28;20268;-79
2021/11/18 03:21:10;;;;;;;8.50;6.67;;;;;;;4.05;100.00;96645.13;5058356;28;20295;-80
2021/11/18 03:23:36;;;;;;;9.10;6.60;;;;;;;4.05;100.00;96636.59;5057943;28;20188;-79
2021/11/18 03:26:02;;;;;;;9.70;6.77;;;;;;;4.08;100.00;96636.47;5075439;28;20195;-80
2021/11/18 03:28:29;;;;;;;8.03;6.83;;;;;;;4.07;100.00;96640.78;5058628;28;20213;-79
2021/11/18 03:30:55;;;;;;;9.23;7.33;;;;;;;4.08;100.00;96647.56;5058379;28;20250;-79
2021/11/18 03:33:28;;;;;;;9.47;7.37;;;;;;;4.11;100.00;96638.84;5075425;28;20188;-79
2021/11/18 03:35:54;;;;;;;10.73;7.17;;;;;;;4.10;100.00;96644.91;5074903;28;20667;-79
2021/11/18 03:38:21;;;;;;;9.20;6.60;;;;;;;4.06;100.00;96633.13;5058282;28;20188;-79
2021/11/18 03:40:50;;;;;;;10.57;6.60;;;;;;;4.00;100.00;96629.16;5075460;28;20224;-79
2021/11/18 03:43:17;;;;;;;10.37;7.40;;;;;;;4.03;100.00;96631.53;5058496;28;20673;-79
2021/11/18 03:45:43;;;;;;;10.10;8.30;;;;;;;4.01;100.00;96633.38;5079225;28;20181;-79
2021/11/18 03:48:08;;;;;;;9.50;7.80;;;;;;;3.98;100.00;96629.22;5062540;28;20208;-79
2021/11/18 03:50:35;;;;;;;10.33;7.60;;;;;;;3.93;100.00;96636.34;5079449;28;20228;-79
2021/11/18 03:53:01;;;;;;;11.67;8.73;;;;;;;3.92;100.00;96633.88;5062469;28;20181;-79
2021/11/18 03:55:26;;;;;;;11.80;9.07;;;;;;;3.89;100.00;96634.84;5078992;28;20190;-79
2021/11/18 03:57:53;;;;;;;11.17;8.70;;;;;;;3.93;100.00;96654.34;5079268;28;20173;-79
2021/11/18 04:00:26;;;;;;;11.43;8.30;;;;;;;3.95;100.00;96656.81;5063059;28;20253;-79
2021/11/18 04:02:52;;;;;;;11.43;7.83;;;;;;;3.97;100.00;96670.41;5081562;28;20192;-79
2021/11/18 04:05:17;;;;;;;9.83;7.53;;;;;;;3.96;100.00;96676.47;5063945;28;20196;-79
2021/11/18 04:07:42;;;;;;;9.87;7.77;;;;;;;3.97;100.00;96670.41;5082047;28;20720;-79
2021/11/18 04:10:11;;;;;;;9.30;7.20;;;;;;;4.01;100.00;96671.94;5081156;28;20184;-79
2021/11/18 04:12:39;;;;;;;9.93;8.10;;;;;;;3.99;100.00;96668.63;5080847;28;20581;-79
2021/11/18 04:15:07;;;;;;;9.03;8.07;;;;;;;3.98;100.00;96672.94;5080845;28;20557;-79
2021/11/18 04:17:32;;;;;;;9.37;7.20;;;;;;;3.96;100.00;96674.72;5063815;28;20240;-79
2021/11/18 04:19:57;;;;;;;8.80;6.97;;;;;;;4.00;100.00;96672.84;5081508;28;20191;-79
2021/11/18 04:22:22;;;;;;;8.10;6.20;;;;;;;3.96;100.00;96666.19;5080419;28;20205;-80
2021/11/18 04:24:48;;;;;;;8.90;7.20;;;;;;;3.98;100.00;96669.53;5062365;28;20197;-79
2021/11/18 04:27:13;;;;;;;9.17;6.97;;;;;;;3.96;100.00;96668.75;5081216;28;20205;-79
2021/11/18 04:29:39;;;;;;;11.30;8.37;;;;;;;3.92;100.00;96668.09;5079915;28;20188;-79
2021/11/18 04:32:11;;;;;;;10.37;6.63;;;;;;;3.94;100.00;96671.41;5079785;28;20201;-80
2021/11/18 04:34:37;;;;;;;9.37;7.27;;;;;;;3.97;100.00;96680.69;5078646;28;20226;-79
2021/11/18 04:37:03;;;;;;;10.07;6.20;;;;;;;3.92;100.00;96680.13;5062359;28;20181;-79
2021/11/18 04:39:29;;;;;;;9.40;7.37;;;;;;;3.98;100.00;96677.25;5079194;28;20176;-79
2021/11/18 04:41:54;;;;;;;9.60;7.30;;;;;;;3.92;100.00;96687.81;5079331;28;20276;-79
2021/11/18 04:44:21;;;;;;;8.93;7.40;;;;;;;3.98;100.00;96690.91;5061168;28;20223;-79
2021/11/18 04:46:46;;;;;;;10.93;7.63;;;;;;;3.94;100.00;96689.41;5062664;28;20183;-79
2021/11/18 04:49:11;;;;;;;9.43;7.30;;;;;;;3.97;100.00;96685.84;5079154;28;20250;-79
2021/11/18 04:51:37;;;;;;;10.23;6.73;;;;;;;4.03;100.00;96698.38;5078571;28;20264;-79
2021/11/18 04:54:02;;;;;;;14.27;9.77;;;;;;;3.92;100.00;96698.09;5061096;28;20267;-79
2021/11/18 04:56:28;;;;;;;12.73;8.57;;;;;;;3.89;100.00;96699.09;5078134;28;20255;-79
2021/11/18 04:58:56;;;;;;;10.17;7.80;;;;;;;3.96;100.00;96700.44;5078847;28;20173;-79
2021/11/18 05:01:21;;;;;;;11.23;8.17;;;;;;;3.96;100.00;96709.88;5079015;28;20263;-79
2021/11/18 05:03:46;;;;;;;9.93;8.10;;;;;;;3.87;100.00;96705.22;5061814;28;20666;-79
2021/11/18 05:06:12;;;;;;;9.50;7.17;;;;;;;3.91;100.00;96705.00;5062349;28;20728;-79
2021/11/18 05:08:38;;;;;;;10.47;7.90;;;;;;;3.90;100.00;96705.91;5078356;28;20703;-79
2021/11/18 05:11:03;;;;;;;10.67;7.40;;;;;;;3.90;100.00;96710.22;5080188;28;20260;-79
2021/11/18 05:13:30;;;;;;;12.27;8.47;;;;;;;3.90;100.00;96705.06;5077545;28;20208;-79
2021/11/18 05:15:57;;;;;;;12.23;7.87;;;;;;;3.83;100.00;96701.16;5077314;28;20245;-79
2021/11/18 05:18:24;;;;;;;9.80;7.40;;;;;;;3.90;100.00;96702.50;5077290;28;20184;-79
2021/11/18 05:20:50;;;;;;;10.47;7.80;;;;;;;3.87;100.00;96703.47;5061961;28;20201;-80
2021/11/18 05:23:16;;;;;;;11.43;7.70;;;;;;;3.89;100.00;96706.81;5077818;28;20180;-79
2021/11/18 05:25:43;;;;;;;10.40;7.47;;;;;;;3.88;100.00;96705.13;5060083;28;20185;-79
2021/11/18 05:28:09;;;;;;;9.80;7.20;;;;;;;3.88;100.00;96699.16;5076987;28;20233;-79
2021/11/18 05:30:35;;;;;;;10.47;7.50;;;;;;;3.88;100.00;96702.56;5060123;28;20204;-79
2021/11/18 05:33:04;;;;;;;12.47;9.07;;;;;;;3.85;100.00;96702.72;5060587;28;20212;-79
2021/11/18 05:35:31;;;;;;;11.47;7.80;;;;;;;3.84;100.00;96716.47;5060116;28;20187;-79
2021/11/18 05:37:57;;;;;;;10.03;8.27;;;;;;;3.85;100.00;96717.31;5077739;28;20200;-79
2021/11/18 05:40:23;;;;;;;11.20;8.43;;;;;;;3.81;100.00;96715.81;5077312;28;20536;-79
2021/11/18 05:42:49;;;;;;;12.70;9.50;;;;;;;3.81;100.00;96718.38;5076931;28;20230;-79
2021/11/18 05:45:17;;;;;;;9.63;7.37;;;;;;;3.89;100.00;96721.41;5076716;28;20184;-79
2021/11/18 05:47:43;;;;;;;12.53;10.10;;;;;;;3.83;100.00;96724.28;5077215;28;20204;-79
2021/11/18 05:50:10;;;;;;;12.07;9.73;;;;;;;3.82;100.00;96725.19;5061084;28;20181;-79
2021/11/18 05:52:35;;;;;;;10.27;7.33;;;;;;;3.85;100.00;96719.88;5061149;28;20220;-79
2021/11/18 05:55:01;;;;;;;10.90;7.50;;;;;;;3.84;100.00;96725.94;5059393;28;20252;-78
2021/11/18 05:57:26;;;;;;;10.10;7.47;;;;;;;3.88;100.00;96722.28;5060708;28;20212;-79
2021/11/18 05:59:52;;;;;;;9.13;6.63;;;;;;;3.84;100.00;96720.78;5060996;28;20195;-78
2021/11/18 06:02:18;;;;;;;13.20;8.00;;;;;;;3.85;100.00;96730.16;5060872;28;20282;-79
2021/11/18 06:04:43;;;;;;;12.10;8.23;;;;;;;3.79;100.00;96733.03;5077423;28;20173;-79
2021/11/18 06:07:09;;;;;;;13.03;8.60;;;;;;;3.81;100.00;96729.50;5078751;28;20215;-79
2021/11/18 06:09:34;;;;;;;12.17;8.10;;;;;;;3.82;100.00;96723.44;5079255;28;20656;-79
2021/11/18 06:12:00;;;;;;;14.90;10.03;;;;;;;3.82;100.00;96722.63;5060459;28;20292;-79
2021/11/18 06:14:25;;;;;;;13.37;9.43;;;;;;;3.82;100.00;96723.44;5077025;28;20181;-79
2021/11/18 06:16:51;;;;;;;13.73;8.90;;;;;;;3.81;100.00;96720.97;5058368;28;20223;-78
2021/11/18 06:19:17;;;;;;;13.83;9.53;;;;;;;3.84;100.00;96725.94;5061023;28;20219;-79
2021/11/18 06:21:45;;;;;;;14.47;9.37;;;;;;;3.84;100.00;96731.91;5080323;28;20204;-80
2021/11/18 06:24:12;;;;;;;13.57;9.10;;;;;;;3.81;100.00;96739.78;5071696;28;20728;-79
2021/11/18 06:26:38;;;;;;;14.37;9.47;;;;;;;3.85;100.00;96738.69;5097716;28;20206;-79
2021/11/18 06:29:04;;;;;;;13.67;9.50;;;;;;;3.86;100.00;96745.50;5098379;28;20184;-81
2021/11/18 06:31:30;;;;;;;13.30;9.60;;;;;;;3.86;100.00;96740.34;5081093;28;20200;-80
2021/11/18 06:33:55;;;;;;;12.43;8.07;;;;;;;3.89;100.00;96745.38;5094543;28;20695;-82
2021/11/18 06:36:21;;;;;;;14.83;9.80;;;;;;;3.87;100.00;96749.72;5097385;28;20206;-80
2021/11/18 06:38:48;;;;;;;12.97;8.93;;;;;;;3.86;100.00;96747.22;5085371;28;20192;-79
2021/11/18 06:41:15;;;;;;;17.60;11.03;;;;;;;3.85;100.00;96753.28;5079143;28;20201;-80
2021/11/18 06:43:41;;;;;;;16.03;10.40;;;;;;;3.81;100.00;96755.19;5070775;28;20180;-79
2021/11/18 06:46:06;;;;;;;21.03;11.10;;;;;;;3.83;100.00;96760.25;5072631;28;20230;-79
2021/11/18 06:48:32;;;;;;;17.73;11.50;;;;;;;3.83;100.00;96761.06;5072489;28;20235;-79
2021/11/18 06:51:05;;;;;;;19.03;11.53;;;;;;;3.81;100.00;96760.34;5092751;28;20284;-79
2021/11/18 06:53:31;;;;;;;22.00;11.63;;;;;;;3.84;100.00;96761.91;5085008;28;20552;-80
2021/11/18 06:55:57;;;;;;;19.67;12.93;;;;;;;3.83;100.00;96758.50;5079641;28;20173;-78
2021/11/18 06:58:22;;;;;;;19.53;12.20;;;;;;;3.86;100.00;96760.91;5061697;28;20176;-78
2021/11/18 07:00:47;;;;;;;19.50;12.00;;;;;;;3.88;100.00;96769.38;5069178;28;20650;-79
2021/11/18 07:03:13;;;;;;;18.63;12.17;;;;;;;3.89;100.00;96772.81;5074929;28;20177;-79
2021/11/18 07:05:39;;;;;;;17.43;12.20;;;;;;;3.90;100.00;96771.88;5075742;28;20195;-79
2021/11/18 07:08:05;;;;;;;21.43;12.07;;;;;;;3.90;100.00;96777.84;5075415;28;20204;-79
2021/11/18 07:10:30;;;;;;;22.40;14.03;;;;;;;3.90;100.00;96777.03;5075331;28;20202;-80
2021/11/18 07:12:56;;;;;;;23.73;14.03;;;;;;;3.91;100.00;96776.13;5076362;28;20172;-79
2021/11/18 07:15:22;;;;;;;18.00;12.97;;;;;;;3.96;100.00;96779.28;5072907;28;20657;-79
2021/11/18 07:17:47;;;;;;;16.53;11.27;;;;;;;3.91;100.00;96783.81;5071638;28;20175;-79
2021/11/18 07:20:13;;;;;;;13.77;10.63;;;;;;;3.95;100.00;96787.88;5074158;28;20181;-79
2021/11/18 07:22:39;;;;;;;13.00;9.17;;;;;;;4.01;100.00;96789.34;5063263;28;20214;-79
2021/11/18 07:25:11;;;;;;;13.47;9.73;;;;;;;4.07;100.00;96802.72;5061563;28;20246;-78
2021/11/18 07:27:36;;;;;;;13.23;8.27;;;;;;;4.07;100.00;96804.47;5055405;28;20212;-79
2021/11/18 07:30:03;;;;;;;10.87;7.37;;;;;;;4.11;100.00;96804.22;5073983;28;20181;-78
2021/11/18 07:32:29;;;;;;;9.37;6.90;;;;;;;4.10;100.00;96806.88;5056161;28;20289;-79
2021/11/18 07:34:54;;;;;;;7.93;6.57;;;;;;;4.18;100.00;96812.44;5064604;28;20204;-78
2021/11/18 07:37:19;;;;;;;8.97;6.13;;;;;;;4.22;100.00;96827.63;5072327;28;20279;-78
2021/11/18 07:39:45;;;;;;;8.43;6.43;;;;;;;4.30;100.00;96823.84;5072450;28;20995;-79
2021/11/18 07:42:10;;;;;;;10.07;7.17;;;;;;;4.29;100.00;96828.16;5073033;28;20196;-79
2021/11/18 07:44:35;;;;;;;12.10;7.97;;;;;;;4.29;99.87;96829.91;5071818;28;20181;-79
2021/11/18 07:47:01;;;;;;;12.33;8.93;;;;;;;4.39;99.49;96838.81;5084537;28;20208;-79
2021/11/18 07:49:27;;;;;;;11.27;8.70;;;;;;;4.34;99.31;96838.22;5092456;28;20176;-79
2021/11/18 07:51:53;;;;;;;14.73;8.97;;;;;;;4.51;99.05;96826.16;5086921;28;20200;-78
2021/11/18 07:54:21;;;;;;;16.57;9.63;;;;;;;4.46;99.06;96843.56;5075803;28;20250;-79
2021/11/18 07:56:46;;;;;;;17.00;10.83;;;;;;;4.40;99.13;96835.31;5056212;28;20268;-80
2021/11/18 07:59:12;;;;;;;17.63;10.67;;;;;;;4.35;99.29;96832.16;5055756;28;20208;-80
2021/11/18 08:01:39;;;;;;;14.43;9.70;;;;;;;4.43;99.20;96822.31;5066667;28;20580;-80
2021/11/18 08:04:05;;;;;;;15.10;9.83;;;;;;;4.42;99.26;96826.63;5088817;28;20186;-80
2021/11/18 08:06:31;;;;;;;15.67;10.00;;;;;;;4.56;98.95;96833.63;5082632;28;20230;-80
2021/11/18 08:08:57;;;;;;;15.23;10.60;;;;;;;4.53;98.73;96829.47;5070572;28;20204;-82
2021/11/18 08:11:26;;;;;;;17.57;10.50;;;;;;;4.53;98.85;96834.63;5069593;28;20201;-80
2021/11/18 08:13:51;;;;;;;18.70;11.97;;;;;;;4.44;98.47;96829.97;5055123;28;20656;-80
2021/11/18 08:16:17;;;;;;;15.80;11.77;;;;;;;4.52;98.62;96834.72;5060414;28;20181;-80
2021/11/18 08:18:42;;;;;;;17.17;11.07;;;;;;;4.42;98.64;96836.94;5058127;28;20180;-80
2021/11/18 08:21:08;;;;;;;17.37;11.37;;;;;;;4.46;98.63;96837.59;5050360;28;20204;-80
2021/11/18 08:23:34;;;;;;;14.90;11.00;;;;;;;4.54;98.06;96838.03;5067001;28;20177;-79
2021/11/18 08:26:02;;;;;;;15.83;11.47;;;;;;;4.54;98.19;96840.59;5069238;28;20185;-80
2021/11/18 08:28:27;;;;;;;19.57;12.30;;;;;;;4.58;97.98;96842.09;5052912;28;20303;-80
2021/11/18 08:30:53;;;;;;;16.73;11.03;;;;;;;4.61;98.59;96839.38;5056209;28;20299;-81
2021/11/18 08:33:18;;;;;;;18.67;12.63;;;;;;;4.70;98.56;96845.78;5072537;28;20172;-82
2021/11/18 08:35:44;;;;;;;15.43;11.70;;;;;;;4.68;97.66;96845.88;5076769;28;20187;-79
2021/11/18 08:38:12;;;;;;;14.00;10.33;;;;;;;4.81;97.94;96852.03;5083745;28;20284;-81
2021/11/18 08:40:42;;;;;;;16.83;12.80;;;;;;;5.00;97.53;96851.88;5079587;28;20193;-81
2021/11/18 08:43:07;;;;;;;21.30;13.53;;;;;;;4.93;96.50;96853.13;5092725;28;20238;-81
2021/11/18 08:45:34;;;;;;;18.87;13.40;;;;;;;5.11;96.97;96852.13;5077409;28;20181;-79
2021/11/18 08:47:59;;;;;;;15.37;10.33;;;;;;;5.00;95.35;96856.19;5085149;28;20195;-79
2021/11/18 08:50:25;;;;;;;12.83;10.20;;;;;;;5.18;96.26;96855.22;5086032;28;20219;-79
2021/11/18 08:52:52;;;;;;;14.10;11.07;;;;;;;5.29;96.05;96858.03;5083850;28;20177;-80
2021/11/18 08:55:22;;;;;;;13.83;10.17;;;;;;;5.22;95.66;96863.63;5093037;28;20242;-80
2021/11/18 08:57:49;;;;;;;12.77;9.73;;;;;;;5.21;95.46;96862.78;5087109;28;20174;-79
2021/11/18 09:00:25;;;;;;;13.23;10.27;;;;;;;5.33;95.65;96864.69;5067947;28;20204;-80
2021/11/18 09:02:51;;;;;;;13.30;10.00;;;;;;;5.24;94.29;96857.47;5065584;28;20191;-80
2021/11/18 09:05:17;;;;;;;13.47;9.83;;;;;;;5.18;93.94;96855.22;5083853;28;20188;-80
2021/11/18 09:07:42;;;;;;;12.30;9.83;;;;;;;5.09;94.16;96863.44;5091662;28;20273;-80
2021/11/18 09:10:08;;;;;;;11.93;9.87;;;;;;;5.26;94.02;96862.53;5066482;28;20215;-80
2021/11/18 09:12:34;;;;;;;12.57;9.77;;;;;;;5.32;94.06;96868.19;5089583;28;20204;-80
2021/11/18 09:15:01;;;;;;;9.97;7.87;;;;;;;5.37;93.92;96862.78;5074206;28;20180;-80
2021/11/18 09:17:28;;;;;;;8.57;7.47;;;;;;;5.44;93.64;96865.84;5064249;28;20172;-78
2021/11/18 09:19:54;;;;;;;9.27;7.73;;;;;;;5.50;93.58;96868.94;5089518;28;20180;-79
2021/11/18 09:22:20;;;;;;;10.47;7.77;;;;;;;5.37;93.31;96875.66;5081632;28;20205;-80
2021/11/18 09:24:55;;;;;;;10.90;8.87;;;;;;;5.28;93.16;96876.97;5072837;28;20188;-79
2021/11/18 09:27:25;;;;;;;10.63;7.53;;;;;;;5.29;92.74;96876.06;5088724;28;20588;-80
2021/11/18 09:29:51;;;;;;;11.17;8.80;;;;;;;5.27;93.36;96888.19;5061282;28;20173;-80
2021/11/18 09:32:16;;;;;;;13.87;9.80;;;;;;;5.38;93.65;96878.13;5075779;28;20212;-80
2021/11/18 09:34:42;;;;;;;11.33;8.83;;;;;;;5.43;93.23;96866.78;5062211;28;20276;-80
2021/11/18 09:37:08;;;;;;;12.67;10.03;;;;;;;5.52;93.11;96868.84;5063184;28;20181;-80
2021/11/18 09:39:33;;;;;;;15.67;10.33;;;;;;;5.66;92.83;96871.50;5069704;28;20169;-80
2021/11/18 09:42:09;;;;;;;14.67;9.93;;;;;;;5.55;91.97;96873.81;5057406;28;20192;-80
2021/11/18 09:45:05;;;;;;;13.10;10.00;;;;;;;5.52;93.23;96881.72;5086366;28;20241;-80
2021/11/18 09:48:09;;;;;;;12.10;9.07;;;;;;;5.61;93.21;96876.06;5077246;28;20197;-80
2021/11/18 09:50:54;;;;;;;11.40;8.40;;;;;;;5.87;92.96;96866.88;5062912;28;20601;-80
2021/11/18 09:53:40;;;;;;;13.60;9.73;;;;;;;6.07;92.50;96868.34;5059303;28;20313;-80
2021/11/18 09:56:12;;;;;;;13.80;10.50;;;;;;;6.16;90.58;96867.81;5092210;28;20173;-80
2021/11/18 09:58:55;;;;;;;12.60;9.30;;;;;;;6.37;89.28;96876.09;5062791;28;20226;-80
2021/11/18 10:01:26;;;;;;;11.57;9.37;;;;;;;6.57;89.55;96878.31;5083042;28;20203;-80
2021/11/18 10:04:20;;;;;;;12.83;8.97;;;;;;;6.87;89.19;96880.81;5089377;28;20203;-79
2021/11/18 10:06:46;;;;;;;12.33;8.90;;;;;;;6.90;88.04;96866.91;5084491;28;20185;-78
2021/11/18 10:09:15;;;;;;;10.53;8.13;;;;;;;6.85;86.93;96879.25;5079327;28;20811;-79
2021/11/18 10:11:52;;;;;;;8.83;7.87;;;;;;;6.67;86.67;96883.75;5080770;28;20228;-79
2021/11/18 10:14:23;;;;;;;11.17;8.37;;;;;;;6.42;86.70;96877.47;5076152;28;20264;-79
2021/11/18 10:17:01;;;;;;;11.43;8.90;;;;;;;6.34;87.16;96889.97;5087461;28;20181;-79
2021/11/18 10:19:30;;;;;;;10.13;8.07;;;;;;;6.10;88.34;96879.34;5063677;28;20180;-78
2021/11/18 10:21:56;;;;;;;10.67;8.53;;;;;;;5.87;89.06;96883.19;5063614;28;20185;-78
2021/11/18 10:24:24;;;;;;;14.03;8.67;;;;;;;5.78;90.16;96883.69;5075507;28;20201;-78
2021/11/18 10:26:54;;;;;;;12.17;8.57;;;;;;;6.00;90.26;96887.66;5058607;28;20227;-78
2021/11/18 10:29:23;;;;;;;13.67;8.90;;;;;;;5.98;90.01;96880.00;5064122;28;20223;-77
2021/11/18 10:31:58;;;;;;;13.10;9.67;;;;;;;6.19;89.65;96876.22;5080874;28;20649;-78
2021/11/18 10:34:49;;;;;;;13.27;10.33;;;;;;;6.31;89.48;96879.00;5061849;28;20664;-77
2021/11/18 10:37:30;;;;;;;11.53;8.30;;;;;;;6.41;89.10;96868.06;5087586;28;20184;-78
2021/11/18 10:40:15;;;;;;;12.13;8.30;;;;;;;6.31;88.54;96866.94;5090785;28;20188;-78
2021/11/18 10:42:42;;;;;;;10.23;7.60;;;;;;;6.38;87.51;96865.66;5076595;28;20184;-79
2021/11/18 10:45:07;;;;;;;9.47;7.13;;;;;;;6.38;87.04;96852.78;5075362;28;20188;-78
2021/11/18 10:47:51;;;;;;;10.23;7.70;;;;;;;6.56;87.54;96853.44;5088251;28;20215;-77
2021/11/18 10:50:38;;;;;;;8.87;7.20;;;;;;;6.58;87.18;96854.16;5074098;28;20683;-79
2021/11/18 10:53:17;;;;;;;7.27;6.53;;;;;;;6.85;nan;96849.09;5067128;28;20204;-79
2021/11/18 10:56:01;;;;;;;8.27;6.60;;;;;;;6.81;85.94;96852.81;5070979;28;20181;-78
2021/11/18 10:58:26;;;;;;;8.03;6.30;;;;;;;6.66;85.58;96845.97;5070666;28;20184;-78
2021/11/18 11:01:01;;;;;;;8.37;5.60;;;;;;;6.59;85.35;96840.34;5085234;28;20196;-79
2021/11/18 11:03:30;;;;;;;9.80;7.47;;;;;;;6.63;86.21;96843.59;5070249;28;20177;-79
2021/11/18 11:06:10;;;;;;;8.30;7.20;;;;;;;6.24;87.79;96837.25;5071813;28;20185;-78
2021/11/18 11:08:37;;;;;;;8.93;7.03;;;;;;;6.11;88.88;96849.22;5069398;28;20684;-79
2021/11/18 11:11:07;;;;;;;9.33;7.73;;;;;;;5.74;90.07;96847.84;5081297;28;20203;-77
2021/11/18 11:14:09;;;;;;;10.23;7.23;;;;;;;5.90;88.52;96846.06;5077480;28;20177;-78
2021/11/18 11:17:12;;;;;;;8.60;7.03;;;;;;;5.90;88.78;96852.09;5073076;28;20177;-78
2021/11/18 11:19:42;;;;;;;7.93;6.30;;;;;;;5.87;88.46;96856.56;5074847;28;20230;-78
2021/11/18 11:22:29;;;;;;;10.67;6.73;;;;;;;5.81;88.89;96852.56;5077499;28;20203;-78
2021/11/18 11:25:14;;;;;;;6.80;5.73;;;;;;;5.65;88.24;96851.78;5078658;28;20188;-79
2021/11/18 11:28:01;;;;;;;6.53;5.37;;;;;;;5.74;88.93;96843.53;5079686;28;20205;-78
2021/11/18 11:30:35;;;;;;;6.43;5.40;;;;;;;5.97;89.04;96845.66;5075706;28;20188;-78
2021/11/18 11:33:06;;;;;;;8.00;5.40;;;;;;;5.97;87.75;96837.94;5075603;28;20171;-78
2021/11/18 11:35:48;;;;;;;5.73;5.07;;;;;;;6.06;86.95;96830.59;5076136;28;20191;-78
2021/11/18 11:38:51;;;;;;;6.40;4.93;;;;;;;6.09;86.86;96825.25;5076638;28;20260;-78